Time;durP1;ratioP1;P1;durP2;ratioP2;P2;SDS_P1;SDS_P2;PMS_P1;PMS_P2;Temp;Humidity;BMP_temperature;BMP_pressure;BME280_temperature;BME280_humidity;BME280_pressure;Samples;Min_cycle;Max_cycle;Signal;HPM_P1;HPM_P2
2022/04/02 00:01:14;;;;;;;29.02;15.13;;;;;;;5.91;57.17;96757.09;4456058;32;20129;-86
2022/04/02 00:03:40;;;;;;;31.77;16.33;;;;;;;6.10;56.85;96743.59;4450252;32;20086;-87
2022/04/02 00:06:06;;;;;;;30.40;15.15;;;;;;;5.71;57.66;96735.75;4449077;32;20123;-85
2022/04/02 00:08:31;;;;;;;32.38;16.35;;;;;;;5.77;57.37;96739.72;4446716;32;20112;-93
2022/04/02 00:10:57;;;;;;;31.95;15.90;;;;;;;5.42;58.34;96729.88;4452286;32;20107;-94
2022/04/02 00:13:23;;;;;;;33.55;16.83;;;;;;;5.22;59.23;96728.59;4458819;32;20432;-93
2022/04/02 00:15:49;;;;;;;33.15;15.65;;;;;;;5.19;59.27;96736.63;4440116;32;20112;-91
2022/04/02 00:18:14;;;;;;;35.83;17.70;;;;;;;5.25;59.15;96731.00;4454435;32;20123;-91
2022/04/02 00:20:40;;;;;;;31.87;16.40;;;;;;;5.23;59.20;96730.25;4444110;32;20081;-93
2022/04/02 00:25:50;;;;;;;33.15;16.60;;;;;;;4.95;59.87;96726.03;4441984;32;20092;-93
2022/04/02 00:28:15;;;;;;;32.08;16.27;;;;;;;5.09;59.56;96720.72;4443072;32;20376;-96
2022/04/02 00:30:41;;;;;;;31.95;16.20;;;;;;;4.91;59.88;96738.41;4433469;32;20097;-96
2022/04/02 00:33:06;;;;;;;35.42;16.75;;;;;;;4.85;60.25;96741.44;4438131;32;20101;-94
2022/04/02 00:35:32;;;;;;;30.02;14.93;;;;;;;5.03;59.66;96731.56;4459576;32;20096;-96
2022/04/02 00:37:58;;;;;;;33.53;16.70;;;;;;;4.74;60.20;96723.03;4449319;32;20270;-92
2022/04/02 00:40:23;;;;;;;33.03;16.95;;;;;;;4.32;61.67;96717.81;4442672;32;20113;-93
2022/04/02 00:42:49;;;;;;;35.08;17.85;;;;;;;4.22;62.01;96723.72;4435984;32;20092;-94
2022/04/02 00:45:14;;;;;;;33.75;16.75;;;;;;;4.26;61.85;96720.81;4453244;32;20149;-93
2022/04/02 00:47:42;;;;;;;31.20;15.90;;;;;;;4.43;61.39;96717.16;4455827;32;20117;-93
2022/04/02 00:50:08;;;;;;;30.50;15.65;;;;;;;4.23;61.94;96713.19;4429731;32;20120;-92
2022/04/02 00:52:34;;;;;;;33.95;15.98;;;;;;;4.38;61.71;96711.38;4450563;32;20240;-93
2022/04/02 00:54:59;;;;;;;34.90;17.10;;;;;;;4.17;62.01;96717.94;4441191;32;20128;-90
2022/04/02 00:57:25;;;;;;;30.88;15.48;;;;;;;4.07;62.12;96723.72;4440115;32;20960;-91
2022/04/02 00:59:50;;;;;;;32.47;16.83;;;;;;;4.01;62.11;96720.66;4440436;32;20116;-92
2022/04/02 01:02:18;;;;;;;32.33;16.87;;;;;;;3.91;62.65;96731.63;4440053;32;20141;-92
2022/04/02 01:04:44;;;;;;;33.20;16.40;;;;;;;3.99;62.32;96731.16;4439949;32;20100;-92
2022/04/02 01:07:10;;;;;;;31.62;15.40;;;;;;;3.98;62.39;96733.84;4444762;32;20118;-93
2022/04/02 01:09:35;;;;;;;34.47;16.52;;;;;;;4.14;61.64;96730.22;4441581;32;20120;-93
2022/04/02 01:12:01;;;;;;;30.52;15.55;;;;;;;4.00;62.32;96738.06;4440597;32;20369;-90
2022/04/02 01:14:26;;;;;;;32.15;15.60;;;;;;;3.96;62.53;96747.00;4442132;32;20090;-89
2022/04/02 01:16:51;;;;;;;31.85;15.90;;;;;;;4.25;61.76;96741.75;4457577;32;20098;-93
2022/04/02 01:19:17;;;;;;;34.05;17.00;;;;;;;4.12;61.93;96744.28;4439950;32;20085;-91
2022/04/02 01:21:46;;;;;;;34.83;17.33;;;;;;;4.37;61.09;96748.00;4439068;32;20204;-91
2022/04/02 01:24:12;;;;;;;33.22;17.23;;;;;;;4.47;60.78;96738.66;4438998;32;20106;-90
2022/04/02 01:26:38;;;;;;;30.98;15.70;;;;;;;4.07;61.74;96749.75;4439069;32;20109;-89
2022/04/02 01:29:04;;;;;;;33.60;16.08;;;;;;;4.17;61.71;96749.22;4438948;32;20108;-91
2022/04/02 01:31:30;;;;;;;30.92;14.95;;;;;;;3.94;62.15;96748.88;4439096;32;20073;-89
2022/04/02 01:33:55;;;;;;;31.90;16.12;;;;;;;4.31;61.34;96762.25;4439261;32;20163;-88
2022/04/02 01:36:22;;;;;;;32.00;16.80;;;;;;;4.29;61.31;96759.72;4440307;32;20094;-90
2022/04/02 01:38:48;;;;;;;30.65;15.93;;;;;;;4.62;60.22;96768.16;4445433;32;20110;-90
2022/04/02 01:41:14;;;;;;;29.37;14.93;;;;;;;4.54;60.00;96766.03;4432796;32;20089;-88
2022/04/02 01:43:39;;;;;;;31.42;16.10;;;;;;;4.56;60.24;96758.09;4440213;32;20081;-87
2022/04/02 01:46:05;;;;;;;32.08;16.52;;;;;;;4.35;60.34;96768.94;4453973;32;20115;-87
2022/04/02 01:48:31;;;;;;;34.75;17.25;;;;;;;4.23;61.08;96765.31;4441526;32;20085;-90
2022/04/02 01:50:56;;;;;;;34.33;16.83;;;;;;;3.96;61.68;96769.59;4455525;32;20105;-87
2022/04/02 01:53:23;;;;;;;34.10;16.67;;;;;;;4.11;61.50;96776.47;4441381;32;20158;-87
2022/04/02 01:55:49;;;;;;;33.00;16.53;;;;;;;3.97;61.88;96777.31;4455538;32;20116;-85
2022/04/02 01:58:15;;;;;;;31.58;16.30;;;;;;;4.23;61.10;96773.12;4441654;32;20116;-87
2022/04/02 02:00:41;;;;;;;32.53;16.80;;;;;;;4.22;60.97;96773.22;4439973;32;20510;-89
2022/04/02 02:03:07;;;;;;;32.20;16.80;;;;;;;3.76;62.23;96769.00;4439831;32;20092;-88
2022/04/02 02:05:34;;;;;;;32.60;16.45;;;;;;;4.02;61.66;96764.84;4428696;32;20100;-93
2022/04/02 02:07:59;;;;;;;33.67;17.67;;;;;;;3.88;62.04;96764.84;4453864;32;20101;-87
2022/04/02 02:10:25;;;;;;;32.60;17.50;;;;;;;4.18;60.89;96761.31;4434828;32;20088;-89
2022/04/02 02:12:51;;;;;;;34.45;16.90;;;;;;;4.26;60.40;96778.16;4433514;32;20445;-91
2022/04/02 02:15:17;;;;;;;34.08;18.10;;;;;;;4.11;60.53;96785.16;4438335;32;20120;-89
2022/04/02 02:17:46;;;;;;;31.10;16.55;;;;;;;4.29;60.15;96790.16;4449458;32;20501;-85
2022/04/02 02:20:12;;;;;;;31.87;17.45;;;;;;;4.38;60.00;96789.59;4453481;32;20115;-85
2022/04/02 02:22:41;;;;;;;32.63;17.15;;;;;;;4.17;60.44;96788.28;4446611;32;20100;-85
2022/04/02 02:25:08;;;;;;;35.13;17.30;;;;;;;4.50;59.67;96788.84;4446738;32;20114;-83
2022/04/02 02:27:35;;;;;;;34.25;17.55;;;;;;;3.61;62.05;96785.53;4432709;32;20077;-84
2022/04/02 02:30:04;;;;;;;32.65;17.27;;;;;;;4.04;61.03;96791.66;4433208;32;20109;-86
2022/04/02 02:32:36;;;;;;;35.53;18.25;;;;;;;3.94;61.37;96793.16;4450258;32;20101;-85
2022/04/02 02:38:11;;;;;;;33.75;17.87;;;;;;;3.55;62.74;96815.37;4437415;32;20150;-88
2022/04/02 02:40:39;;;;;;;36.47;18.05;;;;;;;3.66;62.60;96810.38;4434354;32;20073;-86
2022/04/02 02:43:05;;;;;;;36.63;18.87;;;;;;;3.46;62.97;96790.72;4447096;32;20464;-91
2022/04/02 02:45:31;;;;;;;34.45;16.10;;;;;;;3.64;62.44;96788.81;4447739;32;20228;-89
2022/04/02 02:47:57;;;;;;;34.42;17.62;;;;;;;3.49;62.60;96793.13;4439595;32;20142;-90
2022/04/02 02:50:23;;;;;;;33.70;17.02;;;;;;;3.85;62.11;96784.09;4427205;32;20138;-90
2022/04/02 02:52:48;;;;;;;37.00;17.65;;;;;;;3.67;62.39;96788.66;4446695;32;20102;-89
2022/04/02 02:55:14;;;;;;;36.38;18.85;;;;;;;3.70;62.10;96785.00;4435112;32;20102;-90
2022/04/02 02:57:40;;;;;;;38.08;18.27;;;;;;;3.52;62.85;96789.53;4449147;32;20099;-88
2022/04/02 03:00:09;;;;;;;34.75;17.12;;;;;;;3.66;62.25;96799.16;4418962;32;20100;-90
2022/04/02 03:02:37;;;;;;;34.55;17.33;;;;;;;3.94;61.51;96800.97;4448049;32;20117;-88
2022/04/02 03:05:10;;;;;;;32.65;17.65;;;;;;;3.48;62.61;96796.69;4422006;32;20401;-87
2022/04/02 03:07:49;;;;;;;35.88;17.92;;;;;;;3.84;61.89;96808.47;4447206;32;20381;-86
2022/04/02 03:10:20;;;;;;;31.85;17.50;;;;;;;3.60;62.51;96804.72;4435752;32;20101;-87
2022/04/02 03:12:47;;;;;;;32.45;17.20;;;;;;;3.86;61.75;96805.78;4433991;32;20105;-88
2022/04/02 03:15:13;;;;;;;36.42;17.83;;;;;;;3.97;61.10;96797.31;4447978;32;20168;-87
2022/04/02 03:17:39;;;;;;;31.92;16.37;;;;;;;4.12;60.67;96807.66;4433508;32;20081;-87
2022/04/02 03:20:07;;;;;;;32.88;16.70;;;;;;;3.97;61.04;96802.53;4453950;32;20494;-89
2022/04/02 03:22:39;;;;;;;34.40;18.27;;;;;;;4.26;60.09;96796.38;4434726;32;20534;-89
2022/04/02 03:25:07;;;;;;;34.08;17.52;;;;;;;4.35;60.15;96808.03;4435901;32;20130;-88
2022/04/02 03:27:32;;;;;;;33.58;17.77;;;;;;;4.25;60.11;96802.56;4434382;32;20097;-90
2022/04/02 03:29:57;;;;;;;34.95;17.62;;;;;;;4.33;59.75;96805.53;4449276;32;20115;-93
2022/04/02 03:32:23;;;;;;;34.00;17.20;;;;;;;4.08;60.43;96803.56;4448081;32;20089;-91
2022/04/02 03:34:48;;;;;;;35.22;16.35;;;;;;;4.08;60.32;96808.78;4448657;32;20077;-91
2022/04/02 03:37:14;;;;;;;30.37;15.73;;;;;;;4.19;60.22;96808.13;4434656;32;20101;-89
2022/04/02 03:39:40;;;;;;;32.90;16.45;;;;;;;4.29;59.82;96811.84;4450320;32;20097;-90
2022/04/02 03:42:06;;;;;;;33.38;16.52;;;;;;;4.40;59.58;96798.16;4449385;32;20093;-90
2022/04/02 03:44:31;;;;;;;33.38;15.85;;;;;;;4.36;59.69;96804.47;4449623;32;20412;-90
2022/04/02 03:47:09;;;;;;;33.78;17.02;;;;;;;4.38;59.56;96807.81;4452671;32;20712;-91
2022/04/02 03:49:43;;;;;;;33.17;15.48;;;;;;;4.61;58.99;96810.78;4453149;32;20103;-89
2022/04/02 03:52:09;;;;;;;37.75;17.05;;;;;;;4.53;58.74;96808.66;4439956;32;20380;-92
2022/04/02 03:54:39;;;;;;;31.37;16.25;;;;;;;4.43;59.09;96815.37;4455595;32;20119;-91
2022/04/02 03:57:05;;;;;;;30.55;15.60;;;;;;;4.52;58.81;96820.03;4455768;32;20089;-90
2022/04/02 03:59:31;;;;;;;31.15;15.07;;;;;;;4.23;59.47;96825.25;4451771;32;20176;-94
2022/04/02 04:01:57;;;;;;;29.63;14.38;;;;;;;4.57;58.77;96823.19;4440938;32;20090;-90
2022/04/02 04:04:24;;;;;;;31.27;14.77;;;;;;;4.62;58.63;96822.91;4432439;32;20176;-92
2022/04/02 04:06:49;;;;;;;29.85;15.23;;;;;;;4.48;58.60;96813.31;4440740;32;20116;-89
2022/04/02 04:09:15;;;;;;;30.98;15.07;;;;;;;4.51;58.83;96815.75;4440841;32;20086;-90
2022/04/02 04:11:41;;;;;;;29.55;15.00;;;;;;;4.42;58.79;96817.13;4440691;32;20116;-90
2022/04/02 04:14:06;;;;;;;29.60;14.60;;;;;;;4.63;58.32;96814.97;4440667;32;20496;-90
2022/04/02 04:16:32;;;;;;;29.70;14.27;;;;;;;4.47;58.26;96817.69;4455001;32;20084;-87
2022/04/02 04:18:57;;;;;;;30.10;14.30;;;;;;;4.59;58.02;96826.53;4455787;32;20085;-87
2022/04/02 04:21:24;;;;;;;29.95;15.10;;;;;;;4.48;58.28;96823.75;4455886;32;20120;-87
2022/04/02 04:23:50;;;;;;;28.85;13.95;;;;;;;4.48;58.58;96827.22;4456071;32;20521;-88
2022/04/02 04:26:16;;;;;;;28.52;14.40;;;;;;;4.68;58.01;96833.78;4441821;32;20100;-86
2022/04/02 04:28:41;;;;;;;28.98;14.63;;;;;;;4.67;57.99;96826.88;4455767;32;20463;-86
2022/04/02 04:31:07;;;;;;;25.75;13.88;;;;;;;4.64;57.96;96831.47;4441993;32;20148;-87
2022/04/02 04:33:35;;;;;;;31.20;15.88;;;;;;;4.60;58.32;96835.22;4455917;32;20147;-87
2022/04/02 04:36:00;;;;;;;;;;;;;;;4.58;58.18;96848.34;4443545;32;20090;-85
2022/04/02 04:38:26;;;;;;;31.12;14.27;;;;;;;4.87;57.27;96837.87;4440766;32;19973;-87
2022/04/02 04:40:51;;;;;;;29.87;15.20;;;;;;;4.70;57.76;96842.34;4440547;32;20081;-86
2022/04/02 04:43:17;;;;;;;30.52;15.70;;;;;;;4.67;57.97;96842.53;4440671;32;20093;-92
2022/04/02 04:45:42;;;;;;;30.23;15.68;;;;;;;4.55;58.22;96840.69;4426948;32;20386;-87
2022/04/02 04:48:07;;;;;;;29.55;14.45;;;;;;;4.76;57.52;96838.53;4440742;32;20077;-89
2022/04/02 04:50:34;;;;;;;28.00;13.38;;;;;;;4.61;57.84;96844.69;4440740;32;20125;-94
2022/04/02 04:53:00;;;;;;;28.20;14.30;;;;;;;4.45;58.15;96850.03;4414016;32;20105;-93
2022/04/02 04:55:25;;;;;;;28.95;15.15;;;;;;;4.73;57.69;96854.34;4447074;32;20115;-90
2022/04/02 04:57:51;;;;;;;30.70;14.73;;;;;;;4.75;57.39;96849.06;4441459;32;20127;-92
2022/04/02 05:00:17;;;;;;;28.85;14.32;;;;;;;4.88;57.30;96861.22;4455110;32;20081;-92
2022/04/02 05:02:44;;;;;;;29.35;15.07;;;;;;;4.81;57.25;96852.13;4441805;32;20068;-89
2022/04/02 05:05:12;;;;;;;29.10;14.75;;;;;;;5.00;56.55;96849.19;4455873;32;20157;-90
2022/04/02 05:07:38;;;;;;;30.67;14.13;;;;;;;5.03;56.81;96858.59;4455785;32;20108;-90
2022/04/02 05:10:04;;;;;;;29.52;14.02;;;;;;;5.27;56.03;96854.44;4441812;32;20101;-91
2022/04/02 05:12:31;;;;;;;29.52;14.38;;;;;;;5.28;56.03;96850.88;4455829;32;20123;-93
2022/04/02 05:14:57;;;;;;;29.73;13.68;;;;;;;5.00;56.65;96850.97;4439798;32;20147;-91
2022/04/02 05:17:22;;;;;;;25.80;13.40;;;;;;;5.18;56.63;96860.25;4426292;32;20081;-90
2022/04/02 05:19:48;;;;;;;26.60;13.80;;;;;;;5.12;56.30;96850.19;4452299;32;20364;-90
2022/04/02 05:22:14;;;;;;;28.48;13.90;;;;;;;5.36;55.98;96853.00;4441614;32;20127;-90
2022/04/02 05:24:39;;;;;;;30.62;15.35;;;;;;;5.25;55.80;96860.69;4441435;32;20116;-90
2022/04/02 05:27:04;;;;;;;27.30;14.07;;;;;;;5.12;56.07;96868.47;4439504;32;20109;-90
2022/04/02 05:29:30;;;;;;;27.00;14.00;;;;;;;5.24;55.81;96870.28;4454570;32;20093;-90
2022/04/02 05:31:56;;;;;;;28.77;13.57;;;;;;;5.33;55.59;96868.84;4455280;32;20090;-90
2022/04/02 05:34:21;;;;;;;26.98;14.23;;;;;;;5.51;55.17;96872.06;4455720;32;20119;-90
2022/04/02 05:36:47;;;;;;;27.85;14.70;;;;;;;5.46;55.10;96882.78;4441161;32;20096;-93
2022/04/02 05:39:12;;;;;;;26.35;13.43;;;;;;;5.66;55.02;96880.66;4455872;32;20165;-94
2022/04/02 05:41:37;;;;;;;28.77;13.70;;;;;;;5.62;54.53;96881.81;4444422;32;20101;-95
2022/04/02 05:44:05;;;;;;;29.23;14.48;;;;;;;5.57;54.67;96889.94;4442778;32;20173;-96
2022/04/02 05:46:30;;;;;;;28.08;14.23;;;;;;;5.77;54.65;96898.25;4456635;32;20141;-96
2022/04/02 05:48:57;;;;;;;27.80;14.43;;;;;;;5.90;54.12;96884.28;4457463;32;20172;-95
2022/04/02 05:51:23;;;;;;;28.10;13.70;;;;;;;5.93;53.76;96901.56;4443371;32;20218;-92
2022/04/02 05:53:48;;;;;;;26.85;13.70;;;;;;;6.12;53.39;96895.12;4455224;32;20113;-89
2022/04/02 05:56:14;;;;;;;26.10;14.13;;;;;;;6.16;53.54;96899.19;4444495;32;20366;-89
2022/04/02 05:58:39;;;;;;;25.77;13.27;;;;;;;5.99;53.50;96887.25;4439742;32;20466;-90
2022/04/02 06:01:06;;;;;;;26.85;13.65;;;;;;;5.80;53.98;96898.06;4439863;32;20089;-86
2022/04/02 06:03:32;;;;;;;26.33;13.38;;;;;;;5.47;54.63;96897.53;4437409;32;79782;-88
2022/04/02 06:05:58;;;;;;;26.62;14.02;;;;;;;5.39;55.10;96901.56;4443376;32;20107;-88
2022/04/02 06:08:23;;;;;;;28.42;13.68;;;;;;;5.77;54.41;96899.09;4455114;32;20101;-89
2022/04/02 06:10:49;;;;;;;25.88;13.57;;;;;;;5.88;54.14;96887.94;4455196;32;20088;-89
2022/04/02 06:13:14;;;;;;;26.52;13.77;;;;;;;5.69;54.61;96890.91;4455172;32;20478;-89
2022/04/02 06:15:40;;;;;;;27.33;13.50;;;;;;;5.90;53.91;96893.91;4455222;32;20081;-88
2022/04/02 06:18:07;;;;;;;27.10;13.27;;;;;;;6.08;53.76;96892.72;4441046;32;20123;-89
2022/04/02 06:20:32;;;;;;;26.75;13.15;;;;;;;6.28;53.12;96891.37;4454679;32;20149;-88
2022/04/02 06:22:58;;;;;;;26.25;13.60;;;;;;;6.14;53.09;96890.63;4440655;32;20092;-89
2022/04/02 06:25:24;;;;;;;27.15;13.57;;;;;;;6.25;53.23;96888.97;4455038;32;20097;-89
2022/04/02 06:27:49;;;;;;;27.02;13.73;;;;;;;6.25;52.86;96893.34;4454795;32;20097;-91
2022/04/02 06:30:18;;;;;;;26.08;13.18;;;;;;;6.36;52.80;96895.25;4440509;32;20096;-92
2022/04/02 06:32:43;;;;;;;27.13;13.38;;;;;;;6.48;53.17;96897.84;4440856;32;20112;-90
2022/04/02 06:35:09;;;;;;;26.25;13.05;;;;;;;6.41;52.91;96903.59;4427533;32;20482;-90
2022/04/02 06:37:36;;;;;;;27.02;13.88;;;;;;;6.36;53.13;96901.31;4454607;32;20097;-89
2022/04/02 06:40:04;;;;;;;27.20;13.65;;;;;;;6.27;53.07;96912.41;4439609;32;20827;-89
2022/04/02 06:42:29;;;;;;;24.30;13.68;;;;;;;6.19;53.03;96914.69;4425578;32;20139;-86
2022/04/02 06:44:55;;;;;;;28.12;14.70;;;;;;;6.24;52.88;96916.06;4432360;32;20097;-87
2022/04/02 06:47:31;;;;;;;25.62;13.57;;;;;;;6.36;52.76;96919.63;4454722;32;20345;-89
2022/04/02 06:49:57;;;;;;;27.08;13.80;;;;;;;6.26;53.17;96918.56;4454276;32;20167;-88
2022/04/02 06:52:23;;;;;;;26.92;13.88;;;;;;;6.61;53.28;96921.41;4440195;32;20392;-88
2022/04/02 06:54:48;;;;;;;27.77;12.93;;;;;;;6.80;52.13;96915.75;4440063;32;20085;-90
2022/04/02 06:57:21;;;;;;;25.85;13.13;;;;;;;6.87;52.40;96919.59;4440161;32;20101;-88
2022/04/02 06:59:46;;;;;;;24.67;12.85;;;;;;;7.24;51.75;96924.03;4453726;32;20158;-90
2022/04/02 07:02:12;;;;;;;26.20;13.27;;;;;;;7.52;50.35;96928.16;4454320;32;20093;-92
2022/04/02 07:04:38;;;;;;;24.05;12.23;;;;;;;7.55;50.29;96922.69;4454535;32;20228;-92
2022/04/02 07:07:04;;;;;;;24.90;13.32;;;;;;;7.65;50.46;96920.25;4454637;32;20143;-91
2022/04/02 07:09:29;;;;;;;25.00;13.02;;;;;;;7.84;49.80;96922.34;4454714;32;20194;-93
2022/04/02 07:11:55;;;;;;;25.80;13.18;;;;;;;7.99;49.38;96923.00;4454771;32;20387;-93
2022/04/02 07:14:22;;;;;;;23.65;12.23;;;;;;;7.76;49.41;96922.91;4454571;32;20286;-93
2022/04/02 07:16:47;;;;;;;24.35;12.63;;;;;;;8.06;49.10;96924.22;4454111;32;20384;-93
2022/04/02 07:19:14;;;;;;;24.50;12.80;;;;;;;8.22;48.81;96929.16;4451159;32;20129;-93
2022/04/02 07:21:43;;;;;;;25.00;12.45;;;;;;;8.38;48.29;96934.94;4425024;32;20132;-89
2022/04/02 07:24:10;;;;;;;26.92;14.52;;;;;;;8.41;48.05;96933.88;4424436;32;20176;-93
2022/04/02 07:26:37;;;;;;;24.50;12.87;;;;;;;8.46;47.91;96937.84;4438612;32;20136;-88
2022/04/02 07:29:03;;;;;;;25.63;13.37;;;;;;;8.65;47.74;96937.28;4438486;32;20101;-92
2022/04/02 07:31:28;;;;;;;24.27;12.60;;;;;;;8.81;46.89;96934.31;4424747;32;20119;-92
2022/04/02 07:33:54;;;;;;;24.35;13.35;;;;;;;8.60;47.61;96938.59;4438286;32;20085;-91
2022/04/02 07:36:57;;;;;;;26.58;13.90;;;;;;;8.79;47.55;96941.47;4439265;32;20136;-92
2022/04/02 07:39:46;;;;;;;26.35;13.55;;;;;;;8.44;47.65;96944.13;4454394;32;20093;-92
2022/04/02 07:42:21;;;;;;;25.88;13.55;;;;;;;8.58;47.23;96940.50;4454277;32;20200;-93
2022/04/02 07:45:03;;;;;;;26.30;14.25;;;;;;;8.26;48.24;96951.59;4440267;32;20139;-93
2022/04/02 07:47:36;;;;;;;24.10;12.85;;;;;;;8.20;48.37;96954.66;4439867;32;20112;-94
2022/04/02 07:50:08;;;;;;;23.73;13.07;;;;;;;8.53;48.58;96947.88;4440256;32;20135;-91
2022/04/02 07:52:38;;;;;;;26.52;14.40;;;;;;;8.58;48.20;96951.00;4455176;32;20757;-90
2022/04/02 07:55:07;;;;;;;23.98;12.77;;;;;;;8.79;47.85;96951.16;4438358;32;20430;-91
2022/04/02 07:57:38;;;;;;;27.50;13.55;;;;;;;8.76;48.34;96952.19;4430774;32;20123;-91
2022/04/02 08:00:05;;;;;;;26.35;14.30;;;;;;;8.73;48.13;96951.59;4456212;32;20122;-90
2022/04/02 08:02:37;;;;;;;25.15;13.68;;;;;;;8.92;47.56;96954.47;4456297;32;20101;-90
2022/04/02 08:05:06;;;;;;;23.17;12.57;;;;;;;8.79;47.95;96961.66;4456251;32;20099;-91
2022/04/02 08:07:32;;;;;;;26.42;13.95;;;;;;;8.82;48.23;96964.84;4456067;32;20109;-91
2022/04/02 08:10:00;;;;;;;25.05;13.68;;;;;;;9.13;47.31;96969.53;4442090;32;20168;-91
2022/04/02 08:12:26;;;;;;;27.30;14.13;;;;;;;9.15;47.08;96965.00;4453776;32;20425;-91
2022/04/02 08:14:52;;;;;;;24.17;13.57;;;;;;;9.04;47.07;96961.41;4426980;32;20151;-91
2022/04/02 08:17:21;;;;;;;24.65;13.38;;;;;;;9.14;46.90;96958.09;4427149;32;20100;-94
2022/04/02 08:19:50;;;;;;;25.67;13.57;;;;;;;9.13;46.86;96959.84;4440930;32;20146;-94
2022/04/02 08:22:16;;;;;;;25.08;14.35;;;;;;;8.73;47.34;96964.72;4440640;32;20805;-94
2022/04/02 08:24:45;;;;;;;24.77;14.15;;;;;;;9.18;46.87;96964.78;4426466;32;20124;-92
2022/04/02 08:27:26;;;;;;;24.95;13.93;;;;;;;9.17;47.09;96974.41;4440659;32;20153;-91
2022/04/02 08:30:00;;;;;;;26.05;14.00;;;;;;;8.89;47.41;96970.47;4440659;32;20158;-93
2022/04/02 08:32:40;;;;;;;25.27;13.40;;;;;;;9.13;47.08;96977.41;4443949;32;20758;-91
2022/04/02 08:35:10;;;;;;;24.85;13.73;;;;;;;9.08;47.39;96979.56;4441745;32;20097;-92
2022/04/02 08:38:23;;;;;;;27.08;13.88;;;;;;;9.12;47.50;96981.00;4441912;32;20123;-91
2022/04/02 08:41:10;;;;;;;26.55;12.80;;;;;;;8.93;48.20;96984.22;4395065;32;20136;-89
2022/04/02 08:44:00;;;;;;;24.83;12.95;;;;;;;9.12;47.75;96984.47;4407754;32;20370;-92
2022/04/02 08:46:44;;;;;;;25.23;13.23;;;;;;;9.19;47.38;96985.66;4407862;32;20098;-90
2022/04/02 08:49:23;;;;;;;24.73;13.10;;;;;;;9.23;46.95;96988.88;4407701;32;20177;-90
2022/04/02 08:51:55;;;;;;;;;;;;;;;9.37;46.60;96990.44;4395459;32;20168;-92
2022/04/02 08:54:25;;;;;;;25.95;12.35;;;;;;;9.40;46.80;96992.81;4394589;32;20061;-92
2022/04/02 08:56:56;;;;;;;23.55;12.40;;;;;;;9.47;47.16;96995.81;4394390;32;20098;-93
2022/04/02 08:59:40;;;;;;;25.40;13.23;;;;;;;9.49;46.86;96997.34;4407320;32;20094;-87
2022/04/02 09:02:43;;;;;;;24.73;12.65;;;;;;;9.31;47.01;97006.66;4407518;32;20251;-91
2022/04/02 09:05:10;;;;;;;26.08;13.25;;;;;;;9.38;47.02;97007.88;4406650;32;20469;-89
2022/04/02 09:07:57;;;;;;;22.62;12.52;;;;;;;9.29;47.21;97005.94;4407440;32;20101;-92
2022/04/02 09:10:59;;;;;;;25.25;12.37;;;;;;;9.47;46.87;97003.69;4392466;32;20506;-91
2022/04/02 09:13:31;;;;;;;24.83;12.55;;;;;;;9.26;47.24;97004.41;4392485;32;20098;-92
2022/04/02 09:16:04;;;;;;;23.67;11.93;;;;;;;9.41;46.74;97000.59;4392286;32;20098;-94
2022/04/02 09:18:59;;;;;;;25.33;12.82;;;;;;;9.37;46.93;97006.22;4440173;32;20090;-92
2022/04/02 09:22:02;;;;;;;24.92;13.73;;;;;;;9.74;46.50;97008.56;4433674;32;20090;-91
2022/04/02 09:24:41;;;;;;;23.62;12.90;;;;;;;10.11;45.52;97013.50;4450207;32;20107;-92
2022/04/02 09:27:15;;;;;;;21.98;11.90;;;;;;;10.31;44.57;97015.34;4455724;32;20111;-92
2022/04/02 09:29:41;;;;;;;22.48;11.45;;;;;;;10.16;45.20;97020.06;4455469;32;20100;-91
2022/04/02 09:32:25;;;;;;;21.12;11.45;;;;;;;10.45;44.46;97016.00;4455518;32;20113;-93
2022/04/02 09:35:04;;;;;;;23.58;11.90;;;;;;;10.43;44.41;97019.63;4442318;32;20069;-90
2022/04/02 09:37:32;;;;;;;22.37;11.63;;;;;;;10.34;44.68;97017.72;4455731;32;20084;-94
2022/04/02 09:40:08;;;;;;;23.42;12.15;;;;;;;10.37;44.81;97028.03;4455446;32;20156;-94
2022/04/02 09:42:36;;;;;;;24.70;11.80;;;;;;;10.43;44.35;97029.31;4441286;32;20780;-94
2022/04/02 09:45:04;;;;;;;22.08;11.90;;;;;;;10.37;44.21;97032.44;4441485;32;20123;-93
2022/04/02 09:47:48;;;;;;;21.30;11.80;;;;;;;10.37;44.88;97030.66;4440183;32;20084;-93
2022/04/02 09:50:19;;;;;;;20.35;10.80;;;;;;;10.40;44.64;97034.81;4439951;32;20144;-93
2022/04/02 09:53:09;;;;;;;20.70;10.98;;;;;;;10.23;44.82;97041.44;4439940;32;20599;-93
2022/04/02 09:56:01;;;;;;;21.35;11.02;;;;;;;10.43;45.02;97038.03;4441340;32;20085;-94
2022/04/02 09:58:39;;;;;;;22.70;11.15;;;;;;;10.22;44.40;97048.50;4429709;32;20508;-93
2022/04/02 10:01:06;;;;;;;20.50;11.23;;;;;;;10.34;44.59;97041.44;4455434;32;20088;-93
2022/04/02 10:03:52;;;;;;;20.95;10.52;;;;;;;10.43;44.85;97047.75;4426196;32;20600;-91
2022/04/02 10:06:20;;;;;;;23.20;10.93;;;;;;;10.63;44.15;97044.28;4425872;32;20494;-90
2022/04/02 10:09:02;;;;;;;20.55;10.77;;;;;;;10.80;43.91;97052.59;4439665;32;20101;-94
2022/04/02 10:11:29;;;;;;;22.17;11.18;;;;;;;10.78;43.87;97051.91;4439946;32;20082;-92
2022/04/02 10:13:59;;;;;;;22.60;10.88;;;;;;;10.69;43.65;97045.59;4439572;32;20094;-92
2022/04/02 10:16:26;;;;;;;20.58;10.27;;;;;;;10.81;43.81;97052.44;4439436;32;20100;-95
2022/04/02 10:18:53;;;;;;;22.67;11.12;;;;;;;10.81;44.11;97049.81;4440173;32;20089;-90
2022/04/02 10:21:19;;;;;;;22.62;11.80;;;;;;;10.74;44.21;97053.09;4439682;32;20090;-88
2022/04/02 10:23:53;;;;;;;21.42;11.65;;;;;;;10.68;44.48;97057.09;4425434;32;20148;-91
2022/04/02 10:26:22;;;;;;;20.67;11.02;;;;;;;10.65;44.44;97057.34;4425492;32;20097;-90
2022/04/02 10:28:50;;;;;;;22.37;10.80;;;;;;;10.60;44.85;97063.00;4451134;32;20116;-90
2022/04/02 10:31:26;;;;;;;22.52;11.38;;;;;;;10.37;45.42;97059.63;4452528;32;20097;-88
2022/04/02 10:33:52;;;;;;;22.27;10.68;;;;;;;10.47;45.86;97061.47;4446350;32;20293;-88
2022/04/02 10:36:19;;;;;;;22.40;11.20;;;;;;;10.53;45.70;97063.62;4456611;32;20114;-87
2022/04/02 10:38:48;;;;;;;19.10;10.18;;;;;;;10.45;45.85;97058.13;4444955;32;20101;-88
2022/04/02 10:41:18;;;;;;;23.62;11.18;;;;;;;10.47;46.02;97053.56;4454956;32;20111;-88
2022/04/02 10:43:52;;;;;;;24.75;12.07;;;;;;;10.38;46.43;97063.06;4454843;32;20085;-88
2022/04/02 10:46:20;;;;;;;22.25;11.40;;;;;;;10.47;46.50;97057.06;4455060;32;20093;-87
2022/04/02 10:49:05;;;;;;;24.87;11.93;;;;;;;10.26;46.72;97062.25;4454928;32;20097;-88
2022/04/02 10:51:31;;;;;;;21.30;10.60;;;;;;;10.33;46.67;97059.97;4441000;32;20085;-88
2022/04/02 10:54:07;;;;;;;22.92;11.95;;;;;;;10.26;46.97;97066.66;4454582;32;20127;-87
2022/04/02 10:56:51;;;;;;;19.73;11.10;;;;;;;10.36;46.71;97063.19;4447841;32;20124;-87
2022/04/02 10:59:21;;;;;;;21.12;11.02;;;;;;;10.44;46.81;97070.47;4439294;32;20081;-87
2022/04/02 11:01:49;;;;;;;19.98;10.55;;;;;;;10.46;46.75;97078.25;4454128;32;20505;-91
2022/04/02 11:04:52;;;;;;;21.15;11.43;;;;;;;10.51;46.59;97082.19;4456100;32;20101;-87
2022/04/02 11:07:37;;;;;;;22.27;10.60;;;;;;;10.37;46.84;97085.06;4470317;32;20092;-92
2022/04/02 11:10:04;;;;;;;21.65;11.27;;;;;;;10.15;47.40;97084.16;4470428;32;20081;-87
2022/04/02 11:12:33;;;;;;;21.15;10.65;;;;;;;10.12;47.59;97087.03;4467211;32;20150;-90
2022/04/02 11:15:25;;;;;;;21.55;10.52;;;;;;;10.22;47.31;97092.41;4454630;32;20138;-87
2022/04/02 11:17:56;;;;;;;21.35;10.95;;;;;;;10.15;47.58;97093.84;4440181;32;20162;-89
2022/04/02 11:20:29;;;;;;;21.52;10.48;;;;;;;9.85;48.50;97097.97;4452473;32;20088;-90
2022/04/02 11:22:58;;;;;;;21.30;10.35;;;;;;;9.37;49.81;97099.03;4439391;32;20085;-86
2022/04/02 11:25:24;;;;;;;20.40;10.07;;;;;;;9.55;49.84;97107.28;4454073;32;20101;-88
2022/04/02 11:27:51;;;;;;;19.25;10.27;;;;;;;9.35;50.29;97102.69;4455672;32;20425;-88
2022/04/02 11:30:18;;;;;;;20.25;10.15;;;;;;;8.72;51.92;97112.69;4456222;32;20089;-89
2022/04/02 11:32:46;;;;;;;22.77;10.50;;;;;;;9.28;50.99;97102.34;4439727;32;20088;-86
2022/04/02 11:35:24;;;;;;;20.55;9.73;;;;;;;9.32;51.34;97110.84;4434693;32;20125;-87
2022/04/02 11:38:17;;;;;;;20.95;10.02;;;;;;;9.55;50.55;97107.28;4436035;32;20106;-86
2022/04/02 11:40:47;;;;;;;24.90;10.93;;;;;;;9.62;50.56;97103.22;4447714;32;20105;-86